Back to Top

Language: 

My Weather Underground Personal Weather Station Historical Data with Graphs...

Delerius Weather Station Historical Data
Daily Summary for January 5, 2017 Units:  Metric    English   Both
« Previous Day
Next Day »
Daily Weekly Monthly Yearly Custom
  High: Low: Average:
Temperature: 6.3 °C -2.1 °C 1.1 °C
Dew Point: 1.2 °C -3.5 °C -1.4 °C
Humidity: 95 % 70 % 84 %
Wind Speed: 8 km/h 0 km/h 1.3 km/h
Wind Gust: 46.7 km/h - -
Wind:- - WNW
Pressure: 1035.4 hPa 1031.4 hPa -
Precipitation: 0 mm    
Historical Graphs
 
 
Tabular Data for January 5, 2017
Time Temperature Dew Point Pressure Wind Wind Speed Wind Gust Humidity Rainfall Rate (Hourly) solar Conditions
00:00 2 °C -1.8 °C 1031.4 hPa NW 6.4 km/h 46.7 km/h 76 % 0 mm 0 W/m2
00:05 1.9 °C -1.8 °C 1031.4 hPa NW 6.4 km/h 46.7 km/h 76 % 0 mm 0 W/m2
00:15 1.8 °C -1.9 °C 1031.4 hPa NW 6.4 km/h 11.3 km/h 76 % 0 mm 0 W/m2
00:20 1.8 °C -1.8 °C 1031.4 hPa NW 6.4 km/h 8 km/h 77 % 0 mm 0 W/m2
00:25 1.7 °C -1.9 °C 1031.4 hPa NW 6.4 km/h 8 km/h 77 % 0 mm 0 W/m2
00:30 1.6 °C -2 °C 1031.4 hPa NW 6.4 km/h 8 km/h 77 % 0 mm 0 W/m2
00:35 1.6 °C -2 °C 1031.4 hPa NW 6.4 km/h 8 km/h 77 % 0 mm 0 W/m2
00:40 1.6 °C -2.1 °C 1031.4 hPa NW 4.8 km/h 4.8 km/h 77 % 0 mm 0 W/m2
00:50 1.4 °C -2.1 °C 1031.4 hPa NW 4.8 km/h 4.8 km/h 78 % 0 mm 0 W/m2
01:00 1.3 °C -2.1 °C 1031.4 hPa NW 6.4 km/h 6.4 km/h 78 % 0 mm 0 W/m2
01:05 1.2 °C -2 °C 1031.4 hPa NW 4.8 km/h 12.9 km/h 79 % 0 mm 0 W/m2
01:10 1.2 °C -2 °C 1031.7 hPa NW 3.2 km/h 12.9 km/h 79 % 0 mm 0 W/m2
01:15 1.2 °C -2.1 °C 1031.7 hPa NW 3.2 km/h 12.9 km/h 79 % 0 mm 0 W/m2
01:25 1.2 °C -1.9 °C 1031.7 hPa NW 3.2 km/h 12.9 km/h 80 % 0 mm 0 W/m2
01:30 1.2 °C -1.9 °C 1031.7 hPa NW 1.6 km/h 12.9 km/h 80 % 0 mm 0 W/m2
01:35 1.1 °C -1.9 °C 1031.7 hPa NW 1.6 km/h 12.9 km/h 80 % 0 mm 0 W/m2
01:40 1.1 °C -2 °C 1031.7 hPa NW 3.2 km/h 12.9 km/h 80 % 0 mm 0 W/m2
01:45 1.1 °C -1.8 °C 1031.7 hPa NW 3.2 km/h 12.9 km/h 81 % 0 mm 0 W/m2
01:50 1.1 °C -1.9 °C 1031.7 hPa NW 3.2 km/h 12.9 km/h 80 % 0 mm 0 W/m2
02:00 1.2 °C -1.8 °C 1031.7 hPa WNW 6.4 km/h 6.4 km/h 80 % 0 mm 0 W/m2
02:05 1.2 °C -1.8 °C 1031.7 hPa NW 4.8 km/h 12.9 km/h 80 % 0 mm 0 W/m2
02:10 1.1 °C -1.9 °C 1031.7 hPa NW 3.2 km/h 12.9 km/h 80 % 0 mm 0 W/m2
02:15 1.1 °C -2 °C 1032.1 hPa NW 3.2 km/h 12.9 km/h 80 % 0 mm 0 W/m2
02:20 0.9 °C -2.1 °C 1032.1 hPa NW 3.2 km/h 12.9 km/h 80 % 0 mm 0 W/m2
02:25 0.9 °C -1.9 °C 1032.1 hPa NW 4.8 km/h 12.9 km/h 81 % 0 mm 0 W/m2
02:35 0.9 °C -2 °C 1032.1 hPa NW 6.4 km/h 12.9 km/h 81 % 0 mm 0 W/m2
02:40 0.8 °C -2.1 °C 1032.1 hPa WNW 4.8 km/h 12.9 km/h 81 % 0 mm 0 W/m2
02:45 0.8 °C -2.1 °C 1032.1 hPa NW 4.8 km/h 12.9 km/h 81 % 0 mm 0 W/m2
02:50 0.8 °C -2.1 °C 1032.1 hPa NW 4.8 km/h 12.9 km/h 81 % 0 mm 0 W/m2
02:55 0.9 °C -2 °C 1032.4 hPa NW 4.8 km/h 12.9 km/h 81 % 0 mm 0 W/m2
03:00 1 °C -1.9 °C 1032.4 hPa NW 1.6 km/h 12.9 km/h 81 % 0 mm 0 W/m2
03:10 1.1 °C -2 °C 1032.4 hPa NW 3.2 km/h 12.9 km/h 80 % 0 mm 0 W/m2
03:15 1.1 °C -1.8 °C 1032.4 hPa NW 3.2 km/h 12.9 km/h 81 % 0 mm 0 W/m2
03:20 1.1 °C -1.8 °C 1032.4 hPa NW 1.6 km/h 12.9 km/h 81 % 0 mm 0 W/m2
03:25 1 °C -1.9 °C 1032.4 hPa NW 1.6 km/h 12.9 km/h 81 % 0 mm 0 W/m2
03:30 1 °C -2.1 °C 1032.4 hPa NW 3.2 km/h 3.2 km/h 80 % 0 mm 0 W/m2
03:35 0.9 °C -2.2 °C 1032.4 hPa NW 3.2 km/h 12.9 km/h 80 % 0 mm 0 W/m2
03:45 0.8 °C -2.3 °C 1032.4 hPa NW 3.2 km/h 12.9 km/h 80 % 0 mm 0 W/m2
03:55 0.7 °C -2.2 °C 1032.4 hPa NW 3.2 km/h 12.9 km/h 81 % 0 mm 0 W/m2
04:00 0.6 °C -2.3 °C 1032.1 hPa NW 3.2 km/h 3.2 km/h 81 % 0 mm 0 W/m2
04:05 0.6 °C -2.3 °C 1032.1 hPa NW 1.6 km/h 12.9 km/h 81 % 0 mm 0 W/m2
04:10 0.4 °C -2.5 °C 1032.1 hPa NW 1.6 km/h 1.6 km/h 81 % 0 mm 0 W/m2
04:15 0.2 °C -2.7 °C 1032.1 hPa NW 1.6 km/h 3.2 km/h 81 % 0 mm 0 W/m2
04:20 0.1 °C -2.7 °C 1032.1 hPa NW 1.6 km/h 1.6 km/h 82 % 0 mm 0 W/m2
04:30 -0.2 °C -2.8 °C 1032.1 hPa NW 1.6 km/h 12.9 km/h 83 % 0 mm 0 W/m2
04:35 -0.4 °C -2.8 °C 1032.1 hPa NW 3.2 km/h 12.9 km/h 84 % 0 mm 0 W/m2
04:40 -0.4 °C -2.8 °C 1032.4 hPa NW 3.2 km/h 3.2 km/h 84 % 0 mm 0 W/m2
04:45 -0.4 °C -2.8 °C 1032.4 hPa NW 1.6 km/h 12.9 km/h 84 % 0 mm 0 W/m2
04:50 -0.5 °C -2.9 °C 1032.4 hPa NW 1.6 km/h 1.6 km/h 84 % 0 mm 0 W/m2
04:55 -0.6 °C -2.8 °C 1032.4 hPa NW 1.6 km/h 12.9 km/h 85 % 0 mm 0 W/m2
05:00 -0.7 °C -2.9 °C 1032.4 hPa Calm   12.9 km/h 85 % 0 mm 0 W/m2
05:10 -0.9 °C -3.1 °C 1032.7 hPa NW 1.6 km/h 12.9 km/h 85 % 0 mm 0 W/m2
05:15 -1 °C -3.1 °C 1032.7 hPa NW 3.2 km/h 12.9 km/h 86 % 0 mm 0 W/m2
05:20 -1 °C -2.9 °C 1032.7 hPa NW 1.6 km/h 12.9 km/h 87 % 0 mm 0 W/m2
05:25 -0.9 °C -2.8 °C 1032.7 hPa NW 1.6 km/h 12.9 km/h 87 % 0 mm 0 W/m2
05:30 -0.8 °C -2.7 °C 1032.7 hPa NW 1.6 km/h 1.6 km/h 87 % 0 mm 0 W/m2
05:35 -0.8 °C -2.7 °C 1032.7 hPa Calm   12.9 km/h 87 % 0 mm 0 W/m2
05:45 -0.9 °C -2.8 °C 1032.7 hPa Calm   12.9 km/h 87 % 0 mm 0 W/m2
05:50 -1 °C -2.9 °C 1032.7 hPa Calm   12.9 km/h 87 % 0 mm 0 W/m2
05:55 -1.1 °C -2.9 °C 1032.7 hPa NW 1.6 km/h 12.9 km/h 87 % 0 mm 0 W/m2
06:00 -1.1 °C -2.8 °C 1033.1 hPa NW 1.6 km/h 12.9 km/h 88 % 0 mm 0 W/m2
06:05 -1.1 °C -3 °C 1033.1 hPa NW 1.6 km/h 12.9 km/h 87 % 0 mm 0 W/m2
06:15 -1.2 °C -3.1 °C 1033.1 hPa Calm   12.9 km/h 87 % 0 mm 0 W/m2
06:25 -1.3 °C -3.1 °C 1033.1 hPa Calm   12.9 km/h 88 % 0 mm 0 W/m2
06:30 -1.4 °C -3.1 °C 1033.1 hPa Calm   12.9 km/h 88 % 0 mm 0 W/m2
06:35 -1.5 °C -3.2 °C 1033.1 hPa NW 1.6 km/h 12.9 km/h 88 % 0 mm 0 W/m2
06:40 -1.6 °C -3.3 °C 1033.1 hPa NW 1.6 km/h 12.9 km/h 88 % 0 mm 0 W/m2
06:45 -1.6 °C -3.3 °C 1033.1 hPa NW 1.6 km/h 12.9 km/h 88 % 0 mm 0 W/m2
06:50 -1.7 °C -3.2 °C 1033.1 hPa NW 1.6 km/h 12.9 km/h 89 % 0 mm 0 W/m2
06:55 -1.7 °C -3.2 °C 1033.1 hPa NW 1.6 km/h 12.9 km/h 89 % 0 mm 0 W/m2
07:00 -1.7 °C -3.2 °C 1033.1 hPa NW 3.2 km/h 12.9 km/h 89 % 0 mm 0 W/m2
07:10 -1.6 °C -3.1 °C 1033.1 hPa NW 1.6 km/h 12.9 km/h 89 % 0 mm 0 W/m2
07:15 -1.6 °C -3.1 °C 1033.1 hPa NW 1.6 km/h 12.9 km/h 89 % 0 mm 0 W/m2
07:20 -1.7 °C -3.2 °C 1033.4 hPa NW 1.6 km/h 1.6 km/h 89 % 0 mm 0 W/m2
07:25 -1.7 °C -3.3 °C 1033.4 hPa Calm   12.9 km/h 89 % 0 mm 0 W/m2
07:30 -1.8 °C -3.3 °C 1033.4 hPa Calm   12.9 km/h 89 % 0 mm 0 W/m2
07:35 -1.8 °C -3.4 °C 1033.4 hPa Calm   12.9 km/h 89 % 0 mm 0 W/m2
07:40 -1.9 °C -3.3 °C 1033.7 hPa Calm   12.9 km/h 90 % 0 mm 0 W/m2
07:45 -2 °C -3.4 °C 1033.7 hPa Calm   12.9 km/h 90 % 0 mm 0 W/m2
07:50 -2 °C -3.4 °C 1033.7 hPa Calm   12.9 km/h 90 % 0 mm 0 W/m2
08:00 -1.9 °C -3.4 °C 1033.7 hPa Calm   12.9 km/h 90 % 0 mm 0 W/m2
08:05 -1.9 °C -3.4 °C 1033.7 hPa Calm   12.9 km/h 90 % 0 mm 0 W/m2
08:10 -2.1 °C -3.5 °C 1034.1 hPa Calm   12.9 km/h 90 % 0 mm 5 W/m2
08:15 -2 °C -3.3 °C 1034.1 hPa NW 1.6 km/h 12.9 km/h 91 % 0 mm 5 W/m2
08:20 -1.9 °C -3.2 °C 1034.1 hPa NW 1.6 km/h 1.6 km/h 91 % 0 mm 7 W/m2
08:25 -1.9 °C -3.2 °C 1034.1 hPa Calm   12.9 km/h 91 % 0 mm 9 W/m2
08:30 -1.9 °C -3.2 °C 1034.1 hPa Calm   12.9 km/h 91 % 0 mm 11 W/m2
08:40 -2 °C -3.3 °C 1034.1 hPa NW 1.6 km/h 12.9 km/h 91 % 0 mm 14 W/m2
08:45 -2 °C -3.3 °C 1034.1 hPa NW 3.2 km/h 12.9 km/h 91 % 0 mm 16 W/m2
08:50 -2 °C -3.3 °C 1034.1 hPa NW 3.2 km/h 3.2 km/h 91 % 0 mm 18 W/m2
08:55 -1.9 °C -3.2 °C 1034.1 hPa NW 1.6 km/h 12.9 km/h 91 % 0 mm 19 W/m2
09:00 -1.8 °C -2.9 °C 1034.1 hPa Calm   12.9 km/h 92 % 0 mm 21 W/m2
09:05 -1.8 °C -3.1 °C 1034.1 hPa Calm   12.9 km/h 91 % 0 mm 21 W/m2
09:15 -1.7 °C -3 °C 1034.4 hPa Calm   12.9 km/h 91 % 0 mm 25 W/m2
09:20 -1.7 °C -2.9 °C 1034.4 hPa Calm   12.9 km/h 91 % 0 mm 26 W/m2
09:25 -1.5 °C -2.6 °C 1034.4 hPa Calm   12.9 km/h 92 % 0 mm 30 W/m2
09:30 -1.4 °C -2.5 °C 1034.4 hPa Calm   12.9 km/h 92 % 0 mm 109 W/m2
09:35 -1.3 °C -2.4 °C 1034.4 hPa Calm   12.9 km/h 92 % 0 mm 123 W/m2
09:40 -1.1 °C -2.4 °C 1034.4 hPa Calm   12.9 km/h 91 % 0 mm 137 W/m2
09:50 -0.6 °C -1.7 °C 1034.4 hPa Calm   12.9 km/h 92 % 0 mm 142 W/m2
09:55 -0.2 °C -1.4 °C 1034.4 hPa Calm   12.9 km/h 91 % 0 mm 151 W/m2
10:00 0.2 °C -1.2 °C 1034.4 hPa Calm   12.9 km/h 90 % 0 mm 165 W/m2
10:10 0.9 °C -0.8 °C 1034.4 hPa Calm   12.9 km/h 88 % 0 mm 135 W/m2
10:15 1.2 °C -0.6 °C 1034.4 hPa Calm   12.9 km/h 88 % 0 mm 160 W/m2
10:20 1.6 °C -0.4 °C 1034.4 hPa Calm   12.9 km/h 87 % 0 mm 160 W/m2
10:25 1.8 °C -0.4 °C 1034.4 hPa Calm   12.9 km/h 85 % 0 mm 174 W/m2
10:35 2.1 °C -0.4 °C 1034.8 hPa Calm   12.9 km/h 84 % 0 mm 176 W/m2
10:40 2.3 °C -0.3 °C 1034.8 hPa Calm   12.9 km/h 83 % 0 mm 185 W/m2
10:45 2.6 °C -0.2 °C 1034.4 hPa Calm   12.9 km/h 82 % 0 mm 202 W/m2
10:50 3 °C 0.1 °C 1034.4 hPa Calm   12.9 km/h 81 % 0 mm 200 W/m2
10:55 3.4 °C 0.3 °C 1034.4 hPa Calm   12.9 km/h 80 % 0 mm 216 W/m2
11:00 3.7 °C 0.2 °C 1034.4 hPa Calm   12.9 km/h 78 % 0 mm 218 W/m2
11:10 4 °C 0.3 °C 1034.4 hPa Calm   12.9 km/h 77 % 0 mm 230 W/m2
11:15 4.2 °C 0.3 °C 1034.1 hPa Calm   12.9 km/h 76 % 0 mm 230 W/m2
11:20 4.3 °C 0.4 °C 1034.1 hPa Calm   12.9 km/h 76 % 0 mm 232 W/m2
11:25 4.5 °C 0.3 °C 1034.1 hPa Calm   12.9 km/h 74 % 0 mm 237 W/m2
11:30 4.6 °C 0.3 °C 1034.1 hPa Calm   12.9 km/h 74 % 0 mm 230 W/m2
11:35 4.6 °C 0.2 °C 1034.1 hPa Calm   12.9 km/h 73 % 0 mm 246 W/m2
11:45 4.9 °C 0.5 °C 1034.1 hPa Calm   12.9 km/h 73 % 0 mm 241 W/m2
11:50 5 °C 0.4 °C 1034.1 hPa Calm   12.9 km/h 72 % 0 mm 232 W/m2
11:55 5 °C 0.4 °C 1034.1 hPa Calm   12.9 km/h 72 % 0 mm 255 W/m2
12:00 5.1 °C 0.4 °C 1034.1 hPa Calm   12.9 km/h 72 % 0 mm 236 W/m2
12:10 5.2 °C 0.6 °C 1034.1 hPa Calm   12.9 km/h 72 % 0 mm 255 W/m2
12:15 5.4 °C 0.6 °C 1034.1 hPa Calm   12.9 km/h 71 % 0 mm 255 W/m2
12:20 5.5 °C 0.7 °C 1034.1 hPa Calm   12.9 km/h 71 % 0 mm 234 W/m2
12:25 5.6 °C 0.7 °C 1034.1 hPa Calm   12.9 km/h 71 % 0 mm 255 W/m2
12:30 5.7 °C 0.9 °C 1034.4 hPa Calm   12.9 km/h 71 % 0 mm 162 W/m2
12:35 5.7 °C 0.9 °C 1034.4 hPa NW 1.6 km/h 12.9 km/h 71 % 0 mm 253 W/m2
12:40 5.7 °C 0.8 °C 1034.4 hPa Calm   12.9 km/h 71 % 0 mm 253 W/m2
12:50 5.7 °C 0.8 °C 1034.4 hPa Calm   12.9 km/h 71 % 0 mm 244 W/m2
12:55 5.7 °C 0.9 °C 1034.4 hPa Calm   12.9 km/h 71 % 0 mm 241 W/m2
13:05 6 °C 0.9 °C 1034.1 hPa Calm   12.9 km/h 70 % 0 mm 232 W/m2
13:10 5.9 °C 0.9 °C 1034.1 hPa NW 1.6 km/h 1.6 km/h 70 % 0 mm 227 W/m2
13:15 5.9 °C 0.8 °C 1034.1 hPa NW 1.6 km/h 12.9 km/h 70 % 0 mm 223 W/m2
13:20 5.8 °C 1 °C 1033.7 hPa Calm   12.9 km/h 71 % 0 mm 218 W/m2
13:30 5.9 °C 0.9 °C 1033.7 hPa NW 1.6 km/h 1.6 km/h 70 % 0 mm 206 W/m2
13:35 6.1 °C 1 °C 1034.1 hPa Calm   12.9 km/h 70 % 0 mm 202 W/m2
13:40 6.1 °C 1 °C 1034.1 hPa Calm   12.9 km/h 70 % 0 mm 197 W/m2
13:45 6.1 °C 1 °C 1034.1 hPa Calm   12.9 km/h 70 % 0 mm 190 W/m2
13:50 6 °C 0.9 °C 1033.7 hPa Calm   12.9 km/h 70 % 0 mm 185 W/m2
13:55 6.1 °C 1 °C 1034.1 hPa Calm   12.9 km/h 70 % 0 mm 178 W/m2
14:05 6.1 °C 1.1 °C 1034.4 hPa Calm   12.9 km/h 70 % 0 mm 165 W/m2
14:10 6.2 °C 1.1 °C 1034.4 hPa NW 1.6 km/h 1.6 km/h 70 % 0 mm 158 W/m2
14:15 6.2 °C 1.2 °C 1034.4 hPa Calm   12.9 km/h 70 % 0 mm 151 W/m2
14:20 6.2 °C 1.2 °C 1034.4 hPa Calm   12.9 km/h 70 % 0 mm 144 W/m2
14:25 6.3 °C 1.2 °C 1034.4 hPa Calm   12.9 km/h 70 % 0 mm 135 W/m2
14:30 6.2 °C 1.2 °C 1034.4 hPa Calm   12.9 km/h 70 % 0 mm 128 W/m2
14:40 6.2 °C 1.2 °C 1034.1 hPa Calm   12.9 km/h 70 % 0 mm 107 W/m2
14:45 6.2 °C 1.1 °C 1034.1 hPa NW 1.6 km/h 12.9 km/h 70 % 0 mm 102 W/m2
14:50 6.1 °C 1 °C 1034.4 hPa NW 1.6 km/h 1.6 km/h 70 % 0 mm 91 W/m2
14:55 5.9 °C 1.1 °C 1034.4 hPa NW 1.6 km/h 12.9 km/h 71 % 0 mm 84 W/m2
15:00 5.7 °C 0.8 °C 1034.4 hPa NW 1.6 km/h 1.6 km/h 71 % 0 mm 74 W/m2
15:05 5.4 °C 0.7 °C 1034.4 hPa NW 1.6 km/h 12.9 km/h 72 % 0 mm 67 W/m2
15:10 5.2 °C 0.8 °C 1034.4 hPa NW 1.6 km/h 1.6 km/h 73 % 0 mm 30 W/m2
15:20 5.1 °C 0.8 °C 1034.4 hPa Calm   12.9 km/h 74 % 0 mm 23 W/m2
15:25 4.9 °C 0.9 °C 1034.4 hPa NW 1.6 km/h 12.9 km/h 75 % 0 mm 21 W/m2
15:30 4.8 °C 0.7 °C 1034.4 hPa Calm   12.9 km/h 75 % 0 mm 18 W/m2
15:35 4.6 °C 0.7 °C 1034.4 hPa Calm   12.9 km/h 76 % 0 mm 16 W/m2
15:40 4.4 °C 0.6 °C 1034.4 hPa Calm   12.9 km/h 76 % 0 mm 14 W/m2
15:45 4.3 °C 0.6 °C 1034.4 hPa Calm   12.9 km/h 77 % 0 mm 12 W/m2
15:55 3.9 °C 0.4 °C 1034.4 hPa Calm   12.9 km/h 78 % 0 mm 9 W/m2
16:00 3.7 °C 0.2 °C 1034.4 hPa Calm   12.9 km/h 78 % 0 mm 7 W/m2
16:05 3.5 °C 0.2 °C 1034.4 hPa Calm   12.9 km/h 79 % 0 mm 5 W/m2
16:10 3.3 °C 0.2 °C 1034.8 hPa Calm   12.9 km/h 80 % 0 mm 5 W/m2
16:15 3.1 °C -0.1 °C 1034.8 hPa Calm   12.9 km/h 80 % 0 mm 0 W/m2
16:25 2.7 °C -0.3 °C 1034.8 hPa Calm   12.9 km/h 81 % 0 mm 0 W/m2
16:30 2.4 °C -0.3 °C 1034.8 hPa Calm   12.9 km/h 82 % 0 mm 0 W/m2
16:35 2.3 °C -0.5 °C 1034.8 hPa Calm   12.9 km/h 82 % 0 mm 0 W/m2
16:40 2.1 °C -0.6 °C 1034.8 hPa Calm   12.9 km/h 83 % 0 mm 0 W/m2
16:45 1.8 °C -0.7 °C 1034.8 hPa Calm   12.9 km/h 83 % 0 mm 0 W/m2
16:50 1.7 °C -0.7 °C 1034.8 hPa Calm   12.9 km/h 84 % 0 mm 0 W/m2
17:00 1.3 °C -0.9 °C 1034.8 hPa Calm   12.9 km/h 85 % 0 mm 0 W/m2
17:05 1.2 °C -1.1 °C 1034.8 hPa Calm   12.9 km/h 85 % 0 mm 0 W/m2
17:10 1 °C -1.2 °C 1034.8 hPa Calm   12.9 km/h 85 % 0 mm 0 W/m2
17:15 0.9 °C -1.2 °C 1034.8 hPa Calm   12.9 km/h 86 % 0 mm 0 W/m2
17:20 0.7 °C -1.2 °C 1035.1 hPa Calm   12.9 km/h 87 % 0 mm 0 W/m2
17:25 0.7 °C -1.2 °C 1034.8 hPa Calm   12.9 km/h 87 % 0 mm 0 W/m2
17:35 0.7 °C -1.1 °C 1034.8 hPa Calm   12.9 km/h 88 % 0 mm 0 W/m2
17:40 0.7 °C -1.1 °C 1034.8 hPa Calm   12.9 km/h 88 % 0 mm 0 W/m2
17:45 0.7 °C -1.1 °C 1034.8 hPa Calm   12.9 km/h 88 % 0 mm 0 W/m2
17:50 0.6 °C -1 °C 1035.1 hPa Calm   12.9 km/h 89 % 0 mm 0 W/m2
17:55 0.4 °C -1.3 °C 1035.1 hPa Calm   12.9 km/h 88 % 0 mm 0 W/m2
18:00 0.3 °C -1.4 °C 1035.1 hPa Calm   12.9 km/h 88 % 0 mm 0 W/m2
18:05 0.2 °C -1.6 °C 1035.4 hPa Calm   12.9 km/h 88 % 0 mm 0 W/m2
18:15 -0.1 °C -1.8 °C 1035.1 hPa Calm   12.9 km/h 88 % 0 mm 0 W/m2
18:20 -0.2 °C -1.8 °C 1035.1 hPa Calm   12.9 km/h 89 % 0 mm 0 W/m2
18:25 -0.3 °C -1.9 °C 1035.1 hPa Calm   12.9 km/h 89 % 0 mm 0 W/m2
18:30 -0.4 °C -2.1 °C 1035.4 hPa Calm   12.9 km/h 89 % 0 mm 0 W/m2
18:35 -0.5 °C -2.1 °C 1035.1 hPa Calm   12.9 km/h 89 % 0 mm 0 W/m2
18:40 -0.6 °C -2 °C 1035.1 hPa Calm   12.9 km/h 90 % 0 mm 0 W/m2
18:50 -0.6 °C -1.9 °C 1035.1 hPa Calm   12.9 km/h 91 % 0 mm 0 W/m2
18:55 -0.6 °C -1.9 °C 1035.1 hPa Calm   12.9 km/h 91 % 0 mm 0 W/m2
19:00 -0.6 °C -1.9 °C 1035.1 hPa Calm   12.9 km/h 91 % 0 mm 0 W/m2
19:05 -0.6 °C -1.9 °C 1035.1 hPa Calm   12.9 km/h 91 % 0 mm 0 W/m2
19:10 -0.5 °C -1.7 °C 1035.1 hPa Calm   12.9 km/h 92 % 0 mm 0 W/m2
19:15 -0.5 °C -1.7 °C 1035.1 hPa Calm   12.9 km/h 92 % 0 mm 0 W/m2
19:30 -0.5 °C -1.7 °C 1035.1 hPa Calm   12.9 km/h 92 % 0 mm 0 W/m2
19:35 -0.5 °C -1.7 °C 1035.1 hPa Calm   12.9 km/h 92 % 0 mm 0 W/m2
19:45 -0.7 °C -1.8 °C 1035.1 hPa Calm   12.9 km/h 92 % 0 mm 0 W/m2
19:50 -0.8 °C -2.1 °C 1035.1 hPa Calm   12.9 km/h 91 % 0 mm 0 W/m2
20:00 -0.8 °C -1.9 °C 1035.1 hPa Calm   12.9 km/h 92 % 0 mm 0 W/m2
20:05 -0.8 °C -1.9 °C 1035.1 hPa Calm   12.9 km/h 92 % 0 mm 0 W/m2
20:10 -0.9 °C -2 °C 1035.1 hPa Calm   12.9 km/h 92 % 0 mm 0 W/m2
20:15 -0.8 °C -1.9 °C 1035.4 hPa Calm   12.9 km/h 92 % 0 mm 0 W/m2
20:20 -0.7 °C -1.7 °C 1035.4 hPa Calm   12.9 km/h 93 % 0 mm 0 W/m2
20:25 -0.7 °C -1.7 °C 1035.4 hPa Calm   12.9 km/h 93 % 0 mm 0 W/m2
20:30 -0.7 °C -1.7 °C 1035.4 hPa Calm   12.9 km/h 93 % 0 mm 0 W/m2
20:35 -0.7 °C -1.7 °C 1035.4 hPa Calm   12.9 km/h 93 % 0 mm 0 W/m2
20:45 -0.8 °C -1.8 °C 1035.1 hPa Calm   12.9 km/h 93 % 0 mm 0 W/m2
20:50 -0.8 °C -1.8 °C 1035.1 hPa Calm   12.9 km/h 93 % 0 mm 0 W/m2
20:55 -0.8 °C -1.8 °C 1035.1 hPa Calm   12.9 km/h 93 % 0 mm 0 W/m2
21:00 -0.8 °C -1.8 °C 1035.1 hPa Calm   12.9 km/h 93 % 0 mm 0 W/m2
21:05 -0.8 °C -1.8 °C 1035.1 hPa Calm   12.9 km/h 93 % 0 mm 0 W/m2
21:10 -0.8 °C -1.8 °C 1035.1 hPa Calm   12.9 km/h 93 % 0 mm 0 W/m2
21:20 -0.9 °C -1.9 °C 1035.1 hPa Calm   12.9 km/h 93 % 0 mm 0 W/m2
21:25 -1 °C -2 °C 1035.1 hPa Calm   12.9 km/h 93 % 0 mm 0 W/m2
21:30 -0.9 °C -1.9 °C 1035.1 hPa Calm   12.9 km/h 93 % 0 mm 0 W/m2
21:35 -0.9 °C -1.7 °C 1035.1 hPa Calm   12.9 km/h 94 % 0 mm 0 W/m2
21:40 -0.9 °C -1.9 °C 1035.1 hPa Calm   12.9 km/h 93 % 0 mm 0 W/m2
21:50 -1.2 °C -2.2 °C 1035.1 hPa Calm   12.9 km/h 93 % 0 mm 0 W/m2
21:55 -1.2 °C -2.2 °C 1035.1 hPa NW 1.6 km/h 12.9 km/h 93 % 0 mm 0 W/m2
22:05 -0.7 °C -1.4 °C 1035.1 hPa WNW 3.2 km/h 12.9 km/h 95 % 0 mm 0 W/m2
22:10 -0.4 °C -1.3 °C 1035.1 hPa WNW 3.2 km/h 12.9 km/h 94 % 0 mm 0 W/m2
22:15 -0.6 °C -1.6 °C 1035.1 hPa WNW 4.8 km/h 12.9 km/h 93 % 0 mm 0 W/m2
22:20 -0.7 °C -1.7 °C 1035.1 hPa WNW 3.2 km/h 3.2 km/h 93 % 0 mm 0 W/m2
22:25 -0.7 °C -1.7 °C 1035.1 hPa WNW 1.6 km/h 12.9 km/h 93 % 0 mm 0 W/m2
22:30 -0.6 °C -1.6 °C 1035.1 hPa Calm   12.9 km/h 93 % 0 mm 0 W/m2
22:35 -0.6 °C -1.6 °C 1035.1 hPa Calm   12.9 km/h 93 % 0 mm 0 W/m2
22:45 -0.4 °C -1.4 °C 1035.1 hPa Calm   12.9 km/h 93 % 0 mm 0 W/m2
22:50 -0.1 °C -0.9 °C 1035.1 hPa SW 1.6 km/h 1.6 km/h 94 % 0 mm 0 W/m2
22:55 0.1 °C -0.8 °C 1035.1 hPa SW 3.2 km/h 3.2 km/h 94 % 0 mm 0 W/m2
23:00 0.3 °C -0.6 °C 1035.1 hPa SW 1.6 km/h 12.9 km/h 94 % 0 mm 0 W/m2
23:05 0.4 °C -0.6 °C 1035.1 hPa SSW 3.2 km/h 12.9 km/h 93 % 0 mm 0 W/m2
23:15 0.5 °C -0.7 °C 1035.1 hPa SW 1.6 km/h 12.9 km/h 92 % 0 mm 0 W/m2
23:20 0.6 °C -0.7 °C 1034.8 hPa SW 1.6 km/h 12.9 km/h 91 % 0 mm 0 W/m2
23:25 0.6 °C -0.7 °C 1034.8 hPa WSW 4.8 km/h 12.9 km/h 91 % 0 mm 0 W/m2
23:30 0.8 °C -0.5 °C 1034.8 hPa WSW 8 km/h 8 km/h 91 % 0 mm 0 W/m2
23:35 0.9 °C -0.6 °C 1035.1 hPa WSW 8 km/h 12.9 km/h 90 % 0 mm 0 W/m2
23:40 0.9 °C -0.5 °C 1034.8 hPa WSW 4.8 km/h 4.8 km/h 90 % 0 mm 0 W/m2
23:50 1.1 °C -0.6 °C 1034.8 hPa South 3.2 km/h 3.2 km/h 89 % 0 mm 0 W/m2
23:55 1.1 °C -0.7 °C 1034.8 hPa WSW 3.2 km/h 12.9 km/h 88 % 0 mm 0 W/m2
Delerius-Weather
Compliments of Weather Underground - 2 mb

Data updates at regular intervals.